createdAt,value
2022-10-25T00:02:32.681Z,12.98
2022-10-25T00:05:22.723Z,13.02
2022-10-25T00:08:11.539Z,12.08
2022-10-25T00:11:00.148Z,12.85
2022-10-25T00:13:50.251Z,12.92
2022-10-25T00:16:39.753Z,12.92
2022-10-25T00:19:28.354Z,12.31
2022-10-25T00:22:18.314Z,12.87
2022-10-25T00:25:08.227Z,12.99
2022-10-25T00:27:56.744Z,12.71
2022-10-25T00:30:45.338Z,12.91
2022-10-25T00:33:34.797Z,13.10
2022-10-25T00:36:25.674Z,13.21
2022-10-25T00:39:15.748Z,13.05
2022-10-25T00:42:04.634Z,13.32
2022-10-25T00:44:56.279Z,12.90
2022-10-25T00:47:51.194Z,13.36
2022-10-25T00:50:47.360Z,13.34
2022-10-25T00:53:38.308Z,13.41
2022-10-25T00:56:30.927Z,13.37
2022-10-25T00:59:25.857Z,13.43
2022-10-25T01:02:16.454Z,13.45
2022-10-25T01:05:06.348Z,13.56
2022-10-25T01:07:55.563Z,13.53
2022-10-25T01:10:44.728Z,13.45
2022-10-25T01:13:34.884Z,13.43
2022-10-25T01:16:32.293Z,13.38
2022-10-25T01:19:47.299Z,13.44
2022-10-25T01:22:41.755Z,13.56
2022-10-25T01:25:47.703Z,13.62
2022-10-25T01:28:48.852Z,13.44
2022-10-25T01:31:44.034Z,13.04
2022-10-25T01:34:39.194Z,13.63
2022-10-25T01:37:35.983Z,13.77
2022-10-25T01:40:30.058Z,13.85
2022-10-25T01:43:29.867Z,13.73
2022-10-25T01:46:26.587Z,13.62
2022-10-25T01:49:25.074Z,13.74
2022-10-25T01:52:15.013Z,13.59
2022-10-25T01:55:05.362Z,13.46
2022-10-25T01:58:02.737Z,13.36
2022-10-25T02:01:00.495Z,12.98
2022-10-25T02:03:57.282Z,13.25
2022-10-25T02:06:57.069Z,13.16
2022-10-25T02:09:55.748Z,13.29
2022-10-25T02:12:53.458Z,13.36
2022-10-25T02:15:46.814Z,13.14
2022-10-25T02:18:38.804Z,13.63
2022-10-25T02:21:29.746Z,13.80
2022-10-25T02:24:26.682Z,13.80
2022-10-25T02:27:16.433Z,13.72
2022-10-25T02:30:06.634Z,13.30
2022-10-25T02:32:55.305Z,13.59
2022-10-25T02:35:43.935Z,13.79
2022-10-25T02:38:32.573Z,13.65
2022-10-25T02:41:23.773Z,13.56
2022-10-25T02:44:12.350Z,13.34
2022-10-25T02:47:00.962Z,13.53
2022-10-25T02:49:49.535Z,13.43
2022-10-25T02:52:38.092Z,13.39
2022-10-25T02:55:26.703Z,13.38
2022-10-25T02:58:16.763Z,13.38
2022-10-25T03:01:06.578Z,13.13
2022-10-25T03:03:55.317Z,13.30
2022-10-25T03:06:43.856Z,13.22
2022-10-25T03:09:32.605Z,13.20
2022-10-25T03:12:21.214Z,13.21
2022-10-25T03:15:12.120Z,13.18
2022-10-25T03:18:00.685Z,13.08
2022-10-25T03:20:50.134Z,13.34
2022-10-25T03:23:38.758Z,13.13
2022-10-25T03:26:27.503Z,13.20
2022-10-25T03:29:16.159Z,13.20
2022-10-25T03:32:07.934Z,13.03
2022-10-25T03:34:56.545Z,13.18
2022-10-25T03:37:45.370Z,12.76
2022-10-25T03:40:34.103Z,13.16
2022-10-25T03:46:12.204Z,13.01
2022-10-25T03:49:02.208Z,13.08
2022-10-25T03:51:52.430Z,13.05
2022-10-25T03:54:44.379Z,13.06
2022-10-25T03:57:33.088Z,12.91
2022-10-25T04:00:21.789Z,13.06
2022-10-25T04:03:12.247Z,13.10
2022-10-25T04:06:02.435Z,13.06
2022-10-25T04:08:51.123Z,13.01
2022-10-25T04:11:39.703Z,12.98
2022-10-25T04:14:28.287Z,12.80
2022-10-25T04:17:16.863Z,13.01
2022-10-25T04:20:06.014Z,12.66
2022-10-25T04:22:57.029Z,12.26
2022-10-25T04:25:45.860Z,12.92
2022-10-25T04:28:34.438Z,12.95
2022-10-25T04:31:24.273Z,13.09
2022-10-25T04:34:12.922Z,12.94
2022-10-25T04:37:01.625Z,12.96
2022-10-25T04:39:51.735Z,12.80
2022-10-25T04:42:40.408Z,12.91
2022-10-25T04:45:29.209Z,12.52
2022-10-25T04:48:18.175Z,12.60
2022-10-25T04:51:07.273Z,12.79
2022-10-25T04:53:56.088Z,12.80
2022-10-25T04:56:46.178Z,12.83
2022-10-25T04:59:34.898Z,12.86
2022-10-25T05:02:23.512Z,12.71
2022-10-25T05:05:12.185Z,12.66
2022-10-25T05:08:00.763Z,12.74
2022-10-25T05:10:55.384Z,12.62
2022-10-25T05:13:46.548Z,12.86
2022-10-25T05:16:35.614Z,12.85
2022-10-25T05:19:24.225Z,12.93
2022-10-25T05:22:12.805Z,12.85
2022-10-25T05:25:01.399Z,12.78
2022-10-25T05:27:50.085Z,12.73
2022-10-25T05:30:43.056Z,12.19
2022-10-25T05:33:31.744Z,12.75
2022-10-25T05:36:21.209Z,12.55
2022-10-25T05:39:09.814Z,12.57
2022-10-25T05:41:59.014Z,12.58
2022-10-25T05:44:47.658Z,12.61
2022-10-25T05:47:37.833Z,12.21
2022-10-25T05:50:26.483Z,12.70
2022-10-25T05:53:15.102Z,12.68
2022-10-25T05:56:03.779Z,12.70
2022-10-25T05:58:52.673Z,12.64
2022-10-25T06:01:43.216Z,12.65
2022-10-25T06:04:33.524Z,12.64
2022-10-25T06:07:22.181Z,12.66
2022-10-25T06:10:11.363Z,12.43
2022-10-25T06:12:59.958Z,12.80
2022-10-25T06:15:48.604Z,12.75
2022-10-25T06:18:38.906Z,12.76
2022-10-25T06:21:30.783Z,12.71
2022-10-25T06:24:19.605Z,12.91
2022-10-25T06:27:08.283Z,12.89
2022-10-25T06:29:56.952Z,12.86
2022-10-25T06:32:45.868Z,12.96
2022-10-25T06:35:34.875Z,13.00
2022-10-25T06:38:25.099Z,13.15
2022-10-25T06:41:15.443Z,13.10
2022-10-25T06:44:06.311Z,13.09
2022-10-25T06:47:16.318Z,13.15
2022-10-25T06:50:06.179Z,13.27
2022-10-25T06:52:54.795Z,13.30
2022-10-25T06:55:47.310Z,13.38
2022-10-25T06:58:37.275Z,13.42
2022-10-25T07:01:27.376Z,13.52
2022-10-25T07:04:16.144Z,13.57
2022-10-25T07:07:04.775Z,13.70
2022-10-25T07:09:53.307Z,13.78
2022-10-25T07:12:43.363Z,13.84
2022-10-25T07:15:31.940Z,13.92
2022-10-25T07:18:20.858Z,14.09
2022-10-25T07:21:12.875Z,14.27
2022-10-25T07:24:01.511Z,14.18
2022-10-25T07:26:50.223Z,14.46
2022-10-25T07:29:40.269Z,14.54
2022-10-25T07:32:28.837Z,14.49
2022-10-25T07:35:17.707Z,14.72
2022-10-25T07:38:06.295Z,14.76
2022-10-25T07:40:58.367Z,14.85
2022-10-25T07:43:47.000Z,14.58
2022-10-25T07:46:37.177Z,15.14
2022-10-25T07:49:25.840Z,14.95
2022-10-25T07:52:14.425Z,15.26
2022-10-25T07:55:03.013Z,15.29
2022-10-25T07:57:51.714Z,15.36
2022-10-25T08:00:40.294Z,15.41
2022-10-25T08:03:30.524Z,15.29
2022-10-25T08:06:19.528Z,14.29
2022-10-25T08:09:14.910Z,15.30
2022-10-25T08:12:19.075Z,15.42
2022-10-25T08:15:11.150Z,15.39
2022-10-25T08:18:00.441Z,15.43
2022-10-25T08:21:02.296Z,15.48
2022-10-25T08:23:51.303Z,15.52
2022-10-25T08:26:39.908Z,15.53
2022-10-25T08:29:28.590Z,15.51
2022-10-25T08:32:17.281Z,14.97
2022-10-25T08:35:06.453Z,15.38
2022-10-25T08:37:56.525Z,14.86
2022-10-25T08:40:54.362Z,15.78
2022-10-25T08:44:18.112Z,16.12
2022-10-25T08:47:11.497Z,16.42
2022-10-25T08:50:04.136Z,16.67
2022-10-25T08:52:56.965Z,16.85
2022-10-25T08:56:05.074Z,17.09
2022-10-25T08:59:00.262Z,17.38
2022-10-25T09:01:54.404Z,17.60
2022-10-25T09:04:43.128Z,17.79
2022-10-25T09:08:08.423Z,17.52
2022-10-25T09:11:06.764Z,18.05
2022-10-25T09:14:01.576Z,18.21
2022-10-25T09:16:52.894Z,18.31
2022-10-25T09:19:48.260Z,18.37
2022-10-25T09:22:46.505Z,18.49
2022-10-25T09:25:44.048Z,18.36
2022-10-25T09:28:45.634Z,18.20
2022-10-25T09:31:42.974Z,18.52
2022-10-25T09:34:34.312Z,18.56
2022-10-25T09:37:28.543Z,18.62
2022-10-25T09:40:21.435Z,18.66
2022-10-25T09:43:18.914Z,18.26
2022-10-25T09:46:13.347Z,18.72
2022-10-25T09:49:07.750Z,18.58
2022-10-25T09:52:03.844Z,18.72
2022-10-25T09:54:57.406Z,18.69
2022-10-25T09:57:46.668Z,18.63
2022-10-25T10:00:40.756Z,18.50
2022-10-25T10:03:32.514Z,17.98
2022-10-25T10:06:25.453Z,18.56
2022-10-25T10:09:14.946Z,18.57
2022-10-25T10:12:07.112Z,18.55
2022-10-25T10:15:00.209Z,18.17
2022-10-25T10:18:23.544Z,18.56
2022-10-25T10:21:17.519Z,18.59
2022-10-25T10:24:07.746Z,18.74
2022-10-25T10:26:58.742Z,18.76
2022-10-25T10:29:57.324Z,18.71
2022-10-25T10:32:46.123Z,18.70
2022-10-25T10:35:39.909Z,18.74
2022-10-25T10:38:30.264Z,18.84
2022-10-25T10:41:27.092Z,18.94
2022-10-25T10:44:16.083Z,18.91
2022-10-25T10:47:12.533Z,18.99
2022-10-25T10:50:02.404Z,19.16
2022-10-25T10:52:59.809Z,19.24
2022-10-25T10:55:50.672Z,19.40
2022-10-25T10:58:41.113Z,19.26
2022-10-25T11:01:34.287Z,19.51
2022-10-25T11:04:26.160Z,19.66
2022-10-25T11:07:16.259Z,19.89
2022-10-25T11:10:28.673Z,20.10
2022-10-25T11:13:18.948Z,20.15
2022-10-25T11:16:34.398Z,20.53
2022-10-25T11:19:48.162Z,20.53
2022-10-25T11:23:05.333Z,20.65
2022-10-25T11:26:03.611Z,20.77
2022-10-25T11:28:58.214Z,20.94
2022-10-25T11:31:57.482Z,21.05
2022-10-25T11:34:52.973Z,21.20
2022-10-25T11:37:46.387Z,20.82
2022-10-25T11:40:41.001Z,21.06
2022-10-25T11:43:47.718Z,21.21
2022-10-25T11:46:45.523Z,21.29
2022-10-25T11:49:53.503Z,20.82
2022-10-25T11:53:02.545Z,21.35
2022-10-25T11:55:57.197Z,21.33
2022-10-25T11:58:56.792Z,21.25
2022-10-25T12:02:00.551Z,21.19
2022-10-25T12:05:02.880Z,20.77
2022-10-25T12:07:57.660Z,21.20
2022-10-25T12:10:51.476Z,21.01
2022-10-25T12:13:44.863Z,21.01
2022-10-25T12:16:37.634Z,20.96
2022-10-25T12:19:29.103Z,21.15
2022-10-25T12:22:24.795Z,21.37
2022-10-25T12:25:19.667Z,21.27
2022-10-25T12:28:17.857Z,21.24
2022-10-25T12:31:17.368Z,21.61
2022-10-25T12:34:13.395Z,21.94
2022-10-25T12:37:07.544Z,22.25
2022-10-25T12:39:56.497Z,22.48
2022-10-25T12:42:49.162Z,22.79
2022-10-25T12:45:58.272Z,23.15
2022-10-25T12:49:10.035Z,23.50
2022-10-25T12:52:31.148Z,23.62
2022-10-25T12:55:39.639Z,23.82
2022-10-25T12:58:43.780Z,24.11
2022-10-25T13:02:05.374Z,24.47
2022-10-25T13:05:27.338Z,24.46
2022-10-25T13:08:20.072Z,24.15
2022-10-25T13:11:11.254Z,24.21
2022-10-25T13:14:00.833Z,24.30
2022-10-25T13:16:49.897Z,24.11
2022-10-25T13:19:55.310Z,24.05
2022-10-25T13:22:45.214Z,24.46
2022-10-25T13:26:06.934Z,24.92
2022-10-25T13:28:58.494Z,25.12
2022-10-25T13:31:59.592Z,26.32
2022-10-25T13:34:48.578Z,26.85
2022-10-25T13:37:43.825Z,27.88
2022-10-25T13:40:32.782Z,28.59
2022-10-25T13:43:23.195Z,29.43
2022-10-25T13:46:13.293Z,29.87
2022-10-25T13:49:05.104Z,30.13
2022-10-25T13:51:57.266Z,30.68
2022-10-25T13:54:51.184Z,30.28
2022-10-25T13:57:56.275Z,30.00
2022-10-25T14:00:49.755Z,29.44
2022-10-25T14:04:06.172Z,28.47
2022-10-25T14:06:55.157Z,27.96
2022-10-25T14:09:44.897Z,27.76
2022-10-25T14:12:34.840Z,27.14
2022-10-25T14:15:36.728Z,27.05
2022-10-25T14:18:27.384Z,28.11
2022-10-25T14:21:17.574Z,27.79
2022-10-25T14:24:13.118Z,27.27
2022-10-25T14:27:03.019Z,26.11
2022-10-25T14:29:51.689Z,24.52
2022-10-25T14:32:40.343Z,23.57
2022-10-25T14:35:34.991Z,22.82
2022-10-25T14:38:27.761Z,21.94
2022-10-25T14:41:20.983Z,21.20
2022-10-25T14:44:24.096Z,20.89
2022-10-25T14:47:28.138Z,20.47
2022-10-25T14:50:17.505Z,20.11
2022-10-25T14:53:06.304Z,19.85
2022-10-25T14:55:59.163Z,19.13
2022-10-25T14:58:47.951Z,19.26
2022-10-25T15:01:37.358Z,19.07
2022-10-25T15:04:33.273Z,18.94
2022-10-25T15:07:25.054Z,18.63
2022-10-25T15:10:36.538Z,18.65
2022-10-25T15:13:29.953Z,18.27
2022-10-25T15:16:36.395Z,18.14
2022-10-25T15:19:25.017Z,17.85
2022-10-25T15:22:17.037Z,17.83
2022-10-25T15:25:18.844Z,17.79
2022-10-25T15:28:12.081Z,17.61
2022-10-25T15:31:07.438Z,17.38
2022-10-25T15:34:01.020Z,17.29
2022-10-25T15:36:50.095Z,17.08
2022-10-25T15:39:38.778Z,17.14
2022-10-25T15:42:27.989Z,16.39
2022-10-25T15:45:16.773Z,16.84
2022-10-25T15:48:07.914Z,16.42
2022-10-25T15:50:58.488Z,16.70
2022-10-25T15:53:47.139Z,16.72
2022-10-25T15:56:35.806Z,16.57
2022-10-25T15:59:24.404Z,16.53
2022-10-25T16:02:20.223Z,16.47
2022-10-25T16:05:20.358Z,16.44
2022-10-25T16:08:09.386Z,16.36
2022-10-25T16:10:58.944Z,16.22
2022-10-25T16:13:50.211Z,16.13
2022-10-25T16:16:40.621Z,16.07
2022-10-25T16:19:31.728Z,15.78
2022-10-25T16:22:21.838Z,15.95
2022-10-25T16:25:10.958Z,15.79
2022-10-25T16:27:59.640Z,15.79
2022-10-25T16:30:49.601Z,15.84
2022-10-25T16:33:38.667Z,15.77
2022-10-25T16:36:27.333Z,15.72
2022-10-25T16:39:18.699Z,15.68
2022-10-25T16:42:28.991Z,14.67
2022-10-25T16:45:23.605Z,15.48
2022-10-25T16:48:12.424Z,14.94
2022-10-25T16:51:01.314Z,15.57
2022-10-25T16:53:50.557Z,15.27
2022-10-25T16:56:41.338Z,14.92
2022-10-25T16:59:30.400Z,15.39
2022-10-25T17:02:21.621Z,15.39
2022-10-25T17:05:19.433Z,15.35
2022-10-25T17:08:08.240Z,15.27
2022-10-25T17:10:56.918Z,15.29
2022-10-25T17:13:48.022Z,15.15
2022-10-25T17:16:37.784Z,15.01
2022-10-25T17:19:26.594Z,15.05
2022-10-25T17:22:16.746Z,15.02
2022-10-25T17:25:07.976Z,15.02
2022-10-25T17:27:57.611Z,14.98
2022-10-25T17:30:48.494Z,15.00
2022-10-25T17:33:38.627Z,14.94
2022-10-25T17:36:29.169Z,14.72
2022-10-25T17:39:18.359Z,14.80
2022-10-25T17:42:08.060Z,14.78
2022-10-25T17:44:57.525Z,14.74
2022-10-25T17:47:47.979Z,14.62
2022-10-25T17:50:42.834Z,14.57
2022-10-25T17:53:32.708Z,14.55
2022-10-25T17:56:23.438Z,14.60
2022-10-25T17:59:13.293Z,14.67
2022-10-25T18:02:03.572Z,14.66
2022-10-25T18:05:18.573Z,14.52
2022-10-25T18:08:03.339Z,14.52
2022-10-25T18:10:53.045Z,13.83
2022-10-25T18:13:42.769Z,14.55
2022-10-25T18:16:37.074Z,14.49
2022-10-25T18:19:28.951Z,14.41
2022-10-25T18:22:21.613Z,14.32
2022-10-25T18:25:12.128Z,14.29
2022-10-25T18:28:01.714Z,14.24
2022-10-25T18:30:51.254Z,14.21
2022-10-25T18:33:44.077Z,14.26
2022-10-25T18:36:34.349Z,13.26
2022-10-25T18:39:26.283Z,14.19
2022-10-25T18:42:16.029Z,13.55
2022-10-25T18:45:14.413Z,13.91
2022-10-25T18:48:04.303Z,14.04
2022-10-25T18:50:54.142Z,13.97
2022-10-25T18:53:44.225Z,13.92
2022-10-25T18:56:36.100Z,13.93
2022-10-25T18:59:26.950Z,13.90
2022-10-25T19:02:16.480Z,13.56
2022-10-25T19:05:10.567Z,13.89
2022-10-25T19:08:00.926Z,13.88
2022-10-25T19:10:50.748Z,13.84
2022-10-25T19:13:47.597Z,13.86
2022-10-25T19:16:41.948Z,13.94
2022-10-25T19:19:32.573Z,13.79
2022-10-25T19:22:23.814Z,13.82
2022-10-25T19:25:20.272Z,13.82
2022-10-25T19:28:13.751Z,13.69
2022-10-25T19:31:09.055Z,13.64
2022-10-25T19:34:00.945Z,13.38
2022-10-25T19:36:51.714Z,13.55
2022-10-25T19:39:45.342Z,13.47
2022-10-25T19:42:35.321Z,13.41
2022-10-25T19:45:25.233Z,13.30
2022-10-25T19:48:16.792Z,13.38
2022-10-25T19:51:09.370Z,13.34
2022-10-25T19:53:59.095Z,13.34
2022-10-25T19:56:49.975Z,13.41
2022-10-25T19:59:40.114Z,13.36
2022-10-25T20:02:32.495Z,13.18
2022-10-25T20:05:24.165Z,13.25
2022-10-25T20:08:14.970Z,13.26
2022-10-25T20:11:05.467Z,13.26
2022-10-25T20:13:57.067Z,13.13
2022-10-25T20:16:46.807Z,13.22
2022-10-25T20:19:36.516Z,13.15
2022-10-25T20:22:27.517Z,13.11
2022-10-25T20:25:17.354Z,13.10
2022-10-25T20:28:07.229Z,12.93
2022-10-25T20:31:04.426Z,13.01
2022-10-25T20:33:54.151Z,12.62
2022-10-25T20:36:43.808Z,13.08
2022-10-25T20:39:35.007Z,13.01
2022-10-25T20:42:25.614Z,12.83
2022-10-25T20:45:14.884Z,11.84
2022-10-25T20:48:05.910Z,12.90
2022-10-25T20:50:55.957Z,12.86
2022-10-25T20:53:45.848Z,12.84
2022-10-25T20:56:37.532Z,12.71
2022-10-25T20:59:26.228Z,12.80
2022-10-25T21:02:15.178Z,12.69
2022-10-25T21:05:03.874Z,12.77
2022-10-25T21:07:52.499Z,12.73
2022-10-25T21:10:41.578Z,11.92
2022-10-25T21:13:34.348Z,12.69
2022-10-25T21:16:23.408Z,12.46
2022-10-25T21:19:12.194Z,12.75
2022-10-25T21:22:00.764Z,12.60
2022-10-25T21:24:49.357Z,12.62
2022-10-25T21:27:37.977Z,12.56
2022-10-25T21:30:28.058Z,12.49
2022-10-25T21:33:16.638Z,12.38
2022-10-25T21:36:07.248Z,12.48
2022-10-25T21:38:55.895Z,12.42
2022-10-25T21:41:44.514Z,12.45
2022-10-25T21:44:33.106Z,12.37
2022-10-25T21:47:23.238Z,12.24
2022-10-25T21:50:11.988Z,12.31
2022-10-25T21:53:00.566Z,12.32
2022-10-25T21:55:49.135Z,12.14
2022-10-25T21:58:37.853Z,12.15
2022-10-25T22:01:28.926Z,12.07
2022-10-25T22:04:19.037Z,12.08
2022-10-25T22:07:07.589Z,12.07
2022-10-25T22:09:56.192Z,12.10
2022-10-25T22:12:44.796Z,12.10
2022-10-25T22:15:33.583Z,12.16
2022-10-25T22:18:22.393Z,12.22
2022-10-25T22:21:13.993Z,11.85
2022-10-25T22:24:02.888Z,12.05
2022-10-25T22:26:52.219Z,12.00
2022-10-25T22:29:40.766Z,12.10
2022-10-25T22:32:29.376Z,12.09
2022-10-25T22:35:18.101Z,12.04
2022-10-25T22:38:08.098Z,11.72
2022-10-25T22:41:00.853Z,11.68
2022-10-25T22:43:50.578Z,11.52
2022-10-25T22:46:39.218Z,10.78
2022-10-25T22:49:27.804Z,11.70
2022-10-25T22:52:16.421Z,11.70
2022-10-25T22:55:10.549Z,11.67
2022-10-25T22:57:59.243Z,11.64
2022-10-25T23:00:47.859Z,11.69
2022-10-25T23:03:38.052Z,11.52
2022-10-25T23:06:28.556Z,11.59
2022-10-25T23:09:17.407Z,11.54
2022-10-25T23:12:08.022Z,11.56
2022-10-25T23:14:56.628Z,11.44
2022-10-25T23:20:34.905Z,11.61
2022-10-25T23:23:24.288Z,11.53
2022-10-25T23:26:17.507Z,11.54
2022-10-25T23:29:07.924Z,11.58
2022-10-25T23:31:56.611Z,11.49
2022-10-25T23:34:45.219Z,11.45
2022-10-25T23:37:33.845Z,11.43
2022-10-25T23:40:22.520Z,11.41
2022-10-25T23:43:11.565Z,11.37
2022-10-25T23:46:01.971Z,11.31
2022-10-25T23:48:50.514Z,11.24
2022-10-25T23:51:39.069Z,11.30
2022-10-25T23:54:27.694Z,11.37
2022-10-25T23:57:16.501Z,11.31
